sensor_id;sensor_type;location;lat;lon;timestamp;pressure;altitude;pressure_sealevel;temperature
64394;BMP280;50712;49.506;10.400;2023-12-04T00:00:07;98333.66;;;-1.08
64394;BMP280;50712;49.506;10.400;2023-12-04T00:00:42;98335.19;;;-1.07
64394;BMP280;50712;49.506;10.400;2023-12-04T00:01:13;98342.84;;;-1.05
64394;BMP280;50712;49.506;10.400;2023-12-04T00:01:44;98332.16;;;-1.05
64394;BMP280;50712;49.506;10.400;2023-12-04T00:02:15;98332.16;;;-1.05
64394;BMP280;50712;49.506;10.400;2023-12-04T00:02:45;98334.84;;;-1.05
64394;BMP280;50712;49.506;10.400;2023-12-04T00:03:15;98331.03;;;-1.04
64394;BMP280;50712;49.506;10.400;2023-12-04T00:03:46;98333.38;;;-1.02
64394;BMP280;50712;49.506;10.400;2023-12-04T00:04:16;98327.25;;;-1.03
64394;BMP280;50712;49.506;10.400;2023-12-04T00:04:46;98334.13;;;-1.02
64394;BMP280;50712;49.506;10.400;2023-12-04T00:05:17;98327.66;;;-1.01
64394;BMP280;50712;49.506;10.400;2023-12-04T00:05:47;98330.72;;;-1.02
64394;BMP280;50712;49.506;10.400;2023-12-04T00:06:18;98327.66;;;-1.01
64394;BMP280;50712;49.506;10.400;2023-12-04T00:06:48;98325.00;;;-1.01
64394;BMP280;50712;49.506;10.400;2023-12-04T00:07:18;98323.09;;;-1.00
64394;BMP280;50712;49.506;10.400;2023-12-04T00:07:49;98326.56;;;-1.00
64394;BMP280;50712;49.506;10.400;2023-12-04T00:08:19;98324.66;;;-0.99
64394;BMP280;50712;49.506;10.400;2023-12-04T00:08:49;98321.19;;;-1.00
64394;BMP280;50712;49.506;10.400;2023-12-04T00:09:20;98324.66;;;-0.99
64394;BMP280;50712;49.506;10.400;2023-12-04T00:09:51;98315.06;;;-1.00
64394;BMP280;50712;49.506;10.400;2023-12-04T00:10:21;98321.19;;;-1.00
64394;BMP280;50712;49.506;10.400;2023-12-04T00:10:51;98316.19;;;-1.01
64394;BMP280;50712;49.506;10.400;2023-12-04T00:11:24;98316.19;;;-1.01
64394;BMP280;50712;49.506;10.400;2023-12-04T00:11:54;98316.19;;;-1.01
64394;BMP280;50712;49.506;10.400;2023-12-04T00:12:24;98316.97;;;-1.01
64394;BMP280;50712;49.506;10.400;2023-12-04T00:12:55;98310.06;;;-1.02
64394;BMP280;50712;49.506;10.400;2023-12-04T00:13:25;98306.66;;;-1.02
64394;BMP280;50712;49.506;10.400;2023-12-04T00:13:55;98302.41;;;-1.03
64394;BMP280;50712;49.506;10.400;2023-12-04T00:14:26;98299.75;;;-1.03
64394;BMP280;50712;49.506;10.400;2023-12-04T00:14:56;98298.97;;;-1.04
64394;BMP280;50712;49.506;10.400;2023-12-04T00:15:26;98297.06;;;-1.03
64394;BMP280;50712;49.506;10.400;2023-12-04T00:15:57;98305.09;;;-1.03
64394;BMP280;50712;49.506;10.400;2023-12-04T00:16:27;98296.28;;;-1.04
64394;BMP280;50712;49.506;10.400;2023-12-04T00:16:57;98295.50;;;-1.05
64394;BMP280;50712;49.506;10.400;2023-12-04T00:17:28;98298.19;;;-1.05
64394;BMP280;50712;49.506;10.400;2023-12-04T00:17:58;98292.84;;;-1.05
64394;BMP280;50712;49.506;10.400;2023-12-04T00:18:28;98291.31;;;-1.06
64394;BMP280;50712;49.506;10.400;2023-12-04T00:18:59;98295.88;;;-1.06
64394;BMP280;50712;49.506;10.400;2023-12-04T00:19:29;98290.88;;;-1.08
64394;BMP280;50712;49.506;10.400;2023-12-04T00:19:59;98285.13;;;-1.10
64394;BMP280;50712;49.506;10.400;2023-12-04T00:20:30;98288.56;;;-1.09
64394;BMP280;50712;49.506;10.400;2023-12-04T00:21:00;98292.38;;;-1.10
64394;BMP280;50712;49.506;10.400;2023-12-04T00:21:30;98278.59;;;-1.12
64394;BMP280;50712;49.506;10.400;2023-12-04T00:22:01;98285.06;;;-1.13
64394;BMP280;50712;49.506;10.400;2023-12-04T00:22:31;98278.94;;;-1.14
64394;BMP280;50712;49.506;10.400;2023-12-04T00:23:02;98284.66;;;-1.15
64394;BMP280;50712;49.506;10.400;2023-12-04T00:23:32;98282.31;;;-1.17
64394;BMP280;50712;49.506;10.400;2023-12-04T00:24:03;98278.06;;;-1.18
64394;BMP280;50712;49.506;10.400;2023-12-04T00:24:34;98281.13;;;-1.19
64394;BMP280;50712;49.506;10.400;2023-12-04T00:25:05;98274.22;;;-1.20
64394;BMP280;50712;49.506;10.400;2023-12-04T00:25:36;98280.34;;;-1.20
64394;BMP280;50712;49.506;10.400;2023-12-04T00:26:07;98282.59;;;-1.22
64394;BMP280;50712;49.506;10.400;2023-12-04T00:26:37;98275.34;;;-1.21
64394;BMP280;50712;49.506;10.400;2023-12-04T00:27:08;98275.34;;;-1.21
64394;BMP280;50712;49.506;10.400;2023-12-04T00:27:38;98277.25;;;-1.22
64394;BMP280;50712;49.506;10.400;2023-12-04T00:28:09;98276.47;;;-1.22
64394;BMP280;50712;49.506;10.400;2023-12-04T00:28:39;98272.66;;;-1.21
64394;BMP280;50712;49.506;10.400;2023-12-04T00:29:09;98273.44;;;-1.21
64394;BMP280;50712;49.506;10.400;2023-12-04T00:29:40;98271.53;;;-1.20
64394;BMP280;50712;49.506;10.400;2023-12-04T00:30:10;98273.09;;;-1.19
64394;BMP280;50712;49.506;10.400;2023-12-04T00:30:41;98273.88;;;-1.19
64394;BMP280;50712;49.506;10.400;2023-12-04T00:31:11;98264.72;;;-1.18
64394;BMP280;50712;49.506;10.400;2023-12-04T00:31:41;98264.72;;;-1.18
64394;BMP280;50712;49.506;10.400;2023-12-04T00:32:12;98273.16;;;-1.16
64394;BMP280;50712;49.506;10.400;2023-12-04T00:32:42;98267.81;;;-1.16
64394;BMP280;50712;49.506;10.400;2023-12-04T00:33:12;98265.94;;;-1.15
64394;BMP280;50712;49.506;10.400;2023-12-04T00:33:43;98261.00;;;-1.13
64394;BMP280;50712;49.506;10.400;2023-12-04T00:34:13;98267.13;;;-1.13
64394;BMP280;50712;49.506;10.400;2023-12-04T00:34:43;98267.91;;;-1.12
64394;BMP280;50712;49.506;10.400;2023-12-04T00:35:14;98267.91;;;-1.12
64394;BMP280;50712;49.506;10.400;2023-12-04T00:35:44;98261.41;;;-1.11
64394;BMP280;50712;49.506;10.400;2023-12-04T00:36:14;98267.53;;;-1.11
64394;BMP280;50712;49.506;10.400;2023-12-04T00:36:45;98263.72;;;-1.10
64394;BMP280;50712;49.506;10.400;2023-12-04T00:37:15;98263.72;;;-1.10
64394;BMP280;50712;49.506;10.400;2023-12-04T00:37:45;98267.19;;;-1.09
64394;BMP280;50712;49.506;10.400;2023-12-04T00:38:16;98269.84;;;-1.09
64394;BMP280;50712;49.506;10.400;2023-12-04T00:38:47;98275.22;;;-1.09
64394;BMP280;50712;49.506;10.400;2023-12-04T00:39:17;98272.53;;;-1.09
64394;BMP280;50712;49.506;10.400;2023-12-04T00:39:47;98272.53;;;-1.09
64394;BMP280;50712;49.506;10.400;2023-12-04T00:40:18;98271.38;;;-1.08
64394;BMP280;50712;49.506;10.400;2023-12-04T00:40:48;98270.25;;;-1.07
64394;BMP280;50712;49.506;10.400;2023-12-04T00:41:19;98269.50;;;-1.08
64394;BMP280;50712;49.506;10.400;2023-12-04T00:41:49;98265.69;;;-1.07
64394;BMP280;50712;49.506;10.400;2023-12-04T00:42:19;98271.81;;;-1.06
64394;BMP280;50712;49.506;10.400;2023-12-04T00:42:50;98269.16;;;-1.06
64394;BMP280;50712;49.506;10.400;2023-12-04T00:43:20;98263.81;;;-1.06
64394;BMP280;50712;49.506;10.400;2023-12-04T00:43:50;98266.47;;;-1.06
64394;BMP280;50712;49.506;10.400;2023-12-04T00:44:21;98265.31;;;-1.05
64394;BMP280;50712;49.506;10.400;2023-12-04T00:44:51;98259.97;;;-1.05
64394;BMP280;50712;49.506;10.400;2023-12-04T00:45:21;98255.78;;;-1.06
64394;BMP280;50712;49.506;10.400;2023-12-04T00:45:51;98261.91;;;-1.06
64394;BMP280;50712;49.506;10.400;2023-12-04T00:46:22;98265.69;;;-1.07
64394;BMP280;50712;49.506;10.400;2023-12-04T00:46:52;98256.91;;;-1.07
64394;BMP280;50712;49.506;10.400;2023-12-04T00:47:22;98259.94;;;-1.09
64394;BMP280;50712;49.506;10.400;2023-12-04T00:47:53;98248.34;;;-1.16
64394;BMP280;50712;49.506;10.400;2023-12-04T00:48:23;98258.38;;;-1.10
64394;BMP280;50712;49.506;10.400;2023-12-04T00:48:53;98259.16;;;-1.09
64394;BMP280;50712;49.506;10.400;2023-12-04T00:49:24;98259.94;;;-1.09
64394;BMP280;50712;49.506;10.400;2023-12-04T00:49:54;98255.72;;;-1.10
64394;BMP280;50712;49.506;10.400;2023-12-04T00:50:24;98259.16;;;-1.09
64394;BMP280;50712;49.506;10.400;2023-12-04T00:50:55;98251.47;;;-1.11
64394;BMP280;50712;49.506;10.400;2023-12-04T00:51:25;98259.88;;;-1.12
64394;BMP280;50712;49.506;10.400;2023-12-04T00:51:56;98252.97;;;-1.13
64394;BMP280;50712;49.506;10.400;2023-12-04T00:52:26;98252.19;;;-1.14
64394;BMP280;50712;49.506;10.400;2023-12-04T00:52:56;98257.53;;;-1.14
64394;BMP280;50712;49.506;10.400;2023-12-04T00:53:27;98249.88;;;-1.15
64394;BMP280;50712;49.506;10.400;2023-12-04T00:53:57;98251.78;;;-1.16
64394;BMP280;50712;49.506;10.400;2023-12-04T00:54:27;98252.56;;;-1.15
64394;BMP280;50712;49.506;10.400;2023-12-04T00:54:58;98249.13;;;-1.16
64394;BMP280;50712;49.506;10.400;2023-12-04T00:55:28;98245.28;;;-1.15
64394;BMP280;50712;49.506;10.400;2023-12-04T00:55:59;98251.00;;;-1.16
64394;BMP280;50712;49.506;10.400;2023-12-04T00:56:29;98246.44;;;-1.16
64394;BMP280;50712;49.506;10.400;2023-12-04T00:56:59;98247.22;;;-1.15
64394;BMP280;50712;49.506;10.400;2023-12-04T00:57:29;98245.66;;;-1.16
64394;BMP280;50712;49.506;10.400;2023-12-04T00:58:00;98239.53;;;-1.17
64394;BMP280;50712;49.506;10.400;2023-12-04T00:58:30;98247.56;;;-1.17
64394;BMP280;50712;49.506;10.400;2023-12-04T00:59:00;98244.09;;;-1.17
64394;BMP280;50712;49.506;10.400;2023-12-04T00:59:31;98250.22;;;-1.17
64394;BMP280;50712;49.506;10.400;2023-12-04T01:00:01;98246.00;;;-1.18
64394;BMP280;50712;49.506;10.400;2023-12-04T01:00:32;98248.69;;;-1.18
64394;BMP280;50712;49.506;10.400;2023-12-04T01:01:03;98246.78;;;-1.17
64394;BMP280;50712;49.506;10.400;2023-12-04T01:01:35;98249.47;;;-1.17
64394;BMP280;50712;49.506;10.400;2023-12-04T01:02:06;98241.44;;;-1.17
64394;BMP280;50712;49.506;10.400;2023-12-04T01:02:37;98247.16;;;-1.19
64394;BMP280;50712;49.506;10.400;2023-12-04T01:03:07;98241.81;;;-1.19
64394;BMP280;50712;49.506;10.400;2023-12-04T01:03:38;98245.59;;;-1.20
64394;BMP280;50712;49.506;10.400;2023-12-04T01:04:08;98244.03;;;-1.21
64394;BMP280;50712;49.506;10.400;2023-12-04T01:04:41;98240.97;;;-1.23
64394;BMP280;50712;49.506;10.400;2023-12-04T01:05:11;98247.44;;;-1.24
64394;BMP280;50712;49.506;10.400;2023-12-04T01:05:42;98245.53;;;-1.23
64394;BMP280;50712;49.506;10.400;2023-12-04T01:06:22;98248.19;;;-1.23
64394;BMP280;50712;49.506;10.400;2023-12-04T01:06:53;98242.06;;;-1.24
64394;BMP280;50712;49.506;10.400;2023-12-04T01:07:23;98241.31;;;-1.24
64394;BMP280;50712;49.506;10.400;2023-12-04T01:07:53;98245.91;;;-1.25
64394;BMP280;50712;49.506;10.400;2023-12-04T01:08:23;98245.91;;;-1.25
64394;BMP280;50712;49.506;10.400;2023-12-04T01:08:54;98241.66;;;-1.26
64394;BMP280;50712;49.506;10.400;2023-12-04T01:09:24;98237.09;;;-1.25
64394;BMP280;50712;49.506;10.400;2023-12-04T01:09:55;98243.22;;;-1.25
64394;BMP280;50712;49.506;10.400;2023-12-04T01:10:25;98238.22;;;-1.26
64394;BMP280;50712;49.506;10.400;2023-12-04T01:10:55;98244.34;;;-1.26
64394;BMP280;50712;49.506;10.400;2023-12-04T01:11:26;98246.25;;;-1.26
64394;BMP280;50712;49.506;10.400;2023-12-04T01:11:56;98244.34;;;-1.26
64394;BMP280;50712;49.506;10.400;2023-12-04T01:12:26;98240.13;;;-1.27
64394;BMP280;50712;49.506;10.400;2023-12-04T01:12:57;98242.78;;;-1.27
64394;BMP280;50712;49.506;10.400;2023-12-04T01:13:27;98246.59;;;-1.28
64394;BMP280;50712;49.506;10.400;2023-12-04T01:13:57;98248.91;;;-1.26
64394;BMP280;50712;49.506;10.400;2023-12-04T01:14:28;98238.22;;;-1.26
64394;BMP280;50712;49.506;10.400;2023-12-04T01:14:58;98241.66;;;-1.26
64394;BMP280;50712;49.506;10.400;2023-12-04T01:15:28;98236.31;;;-1.26
64394;BMP280;50712;49.506;10.400;2023-12-04T01:15:59;98239.78;;;-1.25
64394;BMP280;50712;49.506;10.400;2023-12-04T01:16:29;98239.00;;;-1.26
64394;BMP280;50712;49.506;10.400;2023-12-04T01:17:00;98237.09;;;-1.25
64394;BMP280;50712;49.506;10.400;2023-12-04T01:17:30;98234.00;;;-1.27
64394;BMP280;50712;49.506;10.400;2023-12-04T01:18:00;98236.66;;;-1.27
64394;BMP280;50712;49.506;10.400;2023-12-04T01:18:31;98232.47;;;-1.28
64394;BMP280;50712;49.506;10.400;2023-12-04T01:19:01;98226.34;;;-1.29
64394;BMP280;50712;49.506;10.400;2023-12-04T01:19:31;98237.03;;;-1.29
64394;BMP280;50712;49.506;10.400;2023-12-04T01:20:02;98226.69;;;-1.30
64394;BMP280;50712;49.506;10.400;2023-12-04T01:20:32;98237.38;;;-1.30
64394;BMP280;50712;49.506;10.400;2023-12-04T01:21:03;98234.28;;;-1.32
64394;BMP280;50712;49.506;10.400;2023-12-04T01:21:33;98227.72;;;-1.35
64394;BMP280;50712;49.506;10.400;2023-12-04T01:22:04;98223.50;;;-1.36
64394;BMP280;50712;49.506;10.400;2023-12-04T01:22:35;98232.63;;;-1.37
64394;BMP280;50712;49.506;10.400;2023-12-04T01:23:05;98234.13;;;-1.39
64394;BMP280;50712;49.506;10.400;2023-12-04T01:23:36;98236.03;;;-1.40
64394;BMP280;50712;49.506;10.400;2023-12-04T01:24:07;98235.25;;;-1.40
64394;BMP280;50712;49.506;10.400;2023-12-04T01:24:37;98229.50;;;-1.42
64394;BMP280;50712;49.506;10.400;2023-12-04T01:25:08;98227.19;;;-1.44
64394;BMP280;50712;49.506;10.400;2023-12-04T01:25:38;98222.19;;;-1.45
64394;BMP280;50712;49.506;10.400;2023-12-04T01:26:09;98232.09;;;-1.46
64394;BMP280;50712;49.506;10.400;2023-12-04T01:26:40;98224.44;;;-1.47
64394;BMP280;50712;49.506;10.400;2023-12-04T01:27:10;98225.56;;;-1.48
64394;BMP280;50712;49.506;10.400;2023-12-04T01:27:41;98228.22;;;-1.48
64394;BMP280;50712;49.506;10.400;2023-12-04T01:28:12;98225.91;;;-1.50
64394;BMP280;50712;49.506;10.400;2023-12-04T01:28:42;98219.03;;;-1.51
64394;BMP280;50712;49.506;10.400;2023-12-04T01:29:12;98217.47;;;-1.52
64394;BMP280;50712;49.506;10.400;2023-12-04T01:29:43;98222.03;;;-1.52
64394;BMP280;50712;49.506;10.400;2023-12-04T01:30:13;98212.91;;;-1.51
64394;BMP280;50712;49.506;10.400;2023-12-04T01:30:44;98213.69;;;-1.51
64394;BMP280;50712;49.506;10.400;2023-12-04T01:31:14;98212.91;;;-1.51
64394;BMP280;50712;49.506;10.400;2023-12-04T01:31:44;98208.69;;;-1.52
64394;BMP280;50712;49.506;10.400;2023-12-04T01:32:15;98210.56;;;-1.53
64394;BMP280;50712;49.506;10.400;2023-12-04T01:32:45;98206.78;;;-1.52
64394;BMP280;50712;49.506;10.400;2023-12-04T01:33:15;98212.91;;;-1.51
64394;BMP280;50712;49.506;10.400;2023-12-04T01:33:46;98220.91;;;-1.51
64394;BMP280;50712;49.506;10.400;2023-12-04T01:34:16;98215.59;;;-1.51
64394;BMP280;50712;49.506;10.400;2023-12-04T01:34:46;98212.91;;;-1.51
64394;BMP280;50712;49.506;10.400;2023-12-04T01:35:17;98209.13;;;-1.50
64394;BMP280;50712;49.506;10.400;2023-12-04T01:35:47;98211.00;;;-1.51
64394;BMP280;50712;49.506;10.400;2023-12-04T01:36:18;98212.53;;;-1.50
64394;BMP280;50712;49.506;10.400;2023-12-04T01:36:48;98203.78;;;-1.50
64394;BMP280;50712;49.506;10.400;2023-12-04T01:37:18;98208.75;;;-1.49
64394;BMP280;50712;49.506;10.400;2023-12-04T01:37:49;98210.66;;;-1.49
64394;BMP280;50712;49.506;10.400;2023-12-04T01:38:19;98211.78;;;-1.50
64394;BMP280;50712;49.506;10.400;2023-12-04T01:38:49;98210.25;;;-1.51
64394;BMP280;50712;49.506;10.400;2023-12-04T01:39:20;98208.34;;;-1.51
64394;BMP280;50712;49.506;10.400;2023-12-04T01:39:50;98215.59;;;-1.51
64394;BMP280;50712;49.506;10.400;2023-12-04T01:40:20;98213.25;;;-1.53
64394;BMP280;50712;49.506;10.400;2023-12-04T01:40:51;98208.28;;;-1.54
64394;BMP280;50712;49.506;10.400;2023-12-04T01:41:21;98216.28;;;-1.54
64394;BMP280;50712;49.506;10.400;2023-12-04T01:41:52;98215.50;;;-1.55
64394;BMP280;50712;49.506;10.400;2023-12-04T01:42:22;98213.22;;;-1.57
64394;BMP280;50712;49.506;10.400;2023-12-04T01:42:52;98211.66;;;-1.58
64394;BMP280;50712;49.506;10.400;2023-12-04T01:43:23;98205.19;;;-1.57
64394;BMP280;50712;49.506;10.400;2023-12-04T01:43:53;98215.09;;;-1.57
64394;BMP280;50712;49.506;10.400;2023-12-04T01:44:24;98208.19;;;-1.58
64394;BMP280;50712;49.506;10.400;2023-12-04T01:44:54;98215.09;;;-1.57
64394;BMP280;50712;49.506;10.400;2023-12-04T01:45:24;98208.97;;;-1.58
64394;BMP280;50712;49.506;10.400;2023-12-04T01:45:55;98210.09;;;-1.59
64394;BMP280;50712;49.506;10.400;2023-12-04T01:46:26;98206.31;;;-1.58
64394;BMP280;50712;49.506;10.400;2023-12-04T01:46:56;98207.78;;;-1.60
64394;BMP280;50712;49.506;10.400;2023-12-04T01:47:26;98205.13;;;-1.60
64394;BMP280;50712;49.506;10.400;2023-12-04T01:47:57;98205.47;;;-1.62
64394;BMP280;50712;49.506;10.400;2023-12-04T01:48:28;98200.13;;;-1.62
64394;BMP280;50712;49.506;10.400;2023-12-04T01:48:58;98203.56;;;-1.61
64394;BMP280;50712;49.506;10.400;2023-12-04T01:49:30;98198.56;;;-1.63
64394;BMP280;50712;49.506;10.400;2023-12-04T01:50:01;98202.00;;;-1.62
64394;BMP280;50712;49.506;10.400;2023-12-04T01:50:31;98203.91;;;-1.63
64394;BMP280;50712;49.506;10.400;2023-12-04T01:51:05;98204.28;;;-1.64
64394;BMP280;50712;49.506;10.400;2023-12-04T01:51:38;98202.38;;;-1.64
64394;BMP280;50712;49.506;10.400;2023-12-04T01:52:08;98206.94;;;-1.64
64394;BMP280;50712;49.506;10.400;2023-12-04T01:52:39;98210.38;;;-1.64
64394;BMP280;50712;49.506;10.400;2023-12-04T01:53:10;98210.03;;;-1.62
64394;BMP280;50712;49.506;10.400;2023-12-04T01:53:41;98212.28;;;-1.64
64394;BMP280;50712;49.506;10.400;2023-12-04T01:54:12;98210.38;;;-1.64
64394;BMP280;50712;49.506;10.400;2023-12-04T01:54:43;98216.84;;;-1.65
64394;BMP280;50712;49.506;10.400;2023-12-04T01:55:14;98209.63;;;-1.64
64394;BMP280;50712;49.506;10.400;2023-12-04T01:55:45;98206.94;;;-1.64
64394;BMP280;50712;49.506;10.400;2023-12-04T01:56:16;98214.59;;;-1.63
64394;BMP280;50712;49.506;10.400;2023-12-04T01:56:47;98205.06;;;-1.64
64394;BMP280;50712;49.506;10.400;2023-12-04T01:57:18;98210.38;;;-1.64
64394;BMP280;50712;49.506;10.400;2023-12-04T01:57:49;98221.50;;;-1.62
64394;BMP280;50712;49.506;10.400;2023-12-04T01:58:20;98211.16;;;-1.63
64394;BMP280;50712;49.506;10.400;2023-12-04T01:58:51;98211.91;;;-1.63
64394;BMP280;50712;49.506;10.400;2023-12-04T01:59:21;98205.81;;;-1.63
64394;BMP280;50712;49.506;10.400;2023-12-04T01:59:52;98208.50;;;-1.63
64394;BMP280;50712;49.506;10.400;2023-12-04T02:00:22;98200.81;;;-1.65
64394;BMP280;50712;49.506;10.400;2023-12-04T02:00:53;98201.94;;;-1.66
64394;BMP280;50712;49.506;10.400;2023-12-04T02:01:23;98203.88;;;-1.66
64394;BMP280;50712;49.506;10.400;2023-12-04T02:01:54;98207.28;;;-1.66
64394;BMP280;50712;49.506;10.400;2023-12-04T02:02:26;98209.94;;;-1.66
64394;BMP280;50712;49.506;10.400;2023-12-04T02:02:58;98203.88;;;-1.66
64394;BMP280;50712;49.506;10.400;2023-12-04T02:03:30;98203.88;;;-1.66
64394;BMP280;50712;49.506;10.400;2023-12-04T02:04:00;98207.28;;;-1.66
64394;BMP280;50712;49.506;10.400;2023-12-04T02:04:32;98207.28;;;-1.66
64394;BMP280;50712;49.506;10.400;2023-12-04T02:05:04;98203.09;;;-1.67
64394;BMP280;50712;49.506;10.400;2023-12-04T02:05:37;98204.97;;;-1.67
64394;BMP280;50712;49.506;10.400;2023-12-04T02:06:08;98203.88;;;-1.66
64394;BMP280;50712;49.506;10.400;2023-12-04T02:06:40;98208.44;;;-1.67
64394;BMP280;50712;49.506;10.400;2023-12-04T02:07:10;98200.34;;;-1.70
64394;BMP280;50712;49.506;10.400;2023-12-04T02:07:41;98198.44;;;-1.70
64394;BMP280;50712;49.506;10.400;2023-12-04T02:08:11;98202.25;;;-1.71
64394;BMP280;50712;49.506;10.400;2023-12-04T02:08:42;98206.03;;;-1.72
64394;BMP280;50712;49.506;10.400;2023-12-04T02:09:12;98199.91;;;-1.72
64394;BMP280;50712;49.506;10.400;2023-12-04T02:09:44;98204.50;;;-1.73
64394;BMP280;50712;49.506;10.400;2023-12-04T02:10:14;98208.28;;;-1.74
64394;BMP280;50712;49.506;10.400;2023-12-04T02:10:44;98204.84;;;-1.74
64394;BMP280;50712;49.506;10.400;2023-12-04T02:11:15;98209.41;;;-1.75
64394;BMP280;50712;49.506;10.400;2023-12-04T02:11:45;98208.63;;;-1.75
64394;BMP280;50712;49.506;10.400;2023-12-04T02:12:16;98210.19;;;-1.74
64394;BMP280;50712;49.506;10.400;2023-12-04T02:12:46;98210.19;;;-1.74
64394;BMP280;50712;49.506;10.400;2023-12-04T02:13:17;98205.94;;;-1.75
64394;BMP280;50712;49.506;10.400;2023-12-04T02:13:47;98205.19;;;-1.76
64394;BMP280;50712;49.506;10.400;2023-12-04T02:14:18;98207.09;;;-1.76
64394;BMP280;50712;49.506;10.400;2023-12-04T02:14:48;98213.56;;;-1.77
64394;BMP280;50712;49.506;10.400;2023-12-04T02:15:18;98208.22;;;-1.77
64394;BMP280;50712;49.506;10.400;2023-12-04T02:15:49;98213.56;;;-1.77
64394;BMP280;50712;49.506;10.400;2023-12-04T02:16:23;98212.00;;;-1.78
64394;BMP280;50712;49.506;10.400;2023-12-04T02:16:57;98210.88;;;-1.77
64394;BMP280;50712;49.506;10.400;2023-12-04T02:17:29;98206.31;;;-1.77
64394;BMP280;50712;49.506;10.400;2023-12-04T02:18:01;98209.75;;;-1.76
64394;BMP280;50712;49.506;10.400;2023-12-04T02:18:33;98207.09;;;-1.76
64394;BMP280;50712;49.506;10.400;2023-12-04T02:19:06;98204.44;;;-1.76
64394;BMP280;50712;49.506;10.400;2023-12-04T02:19:37;98205.19;;;-1.76
64394;BMP280;50712;49.506;10.400;2023-12-04T02:20:08;98202.53;;;-1.76
64394;BMP280;50712;49.506;10.400;2023-12-04T02:20:39;98202.53;;;-1.76
64394;BMP280;50712;49.506;10.400;2023-12-04T02:21:09;98200.19;;;-1.77
64394;BMP280;50712;49.506;10.400;2023-12-04T02:21:40;98207.44;;;-1.78
64394;BMP280;50712;49.506;10.400;2023-12-04T02:22:10;98200.56;;;-1.79
64394;BMP280;50712;49.506;10.400;2023-12-04T02:22:41;98207.81;;;-1.79
64394;BMP280;50712;49.506;10.400;2023-12-04T02:23:11;98197.47;;;-1.81
64394;BMP280;50712;49.506;10.400;2023-12-04T02:23:42;98205.47;;;-1.81
64394;BMP280;50712;49.506;10.400;2023-12-04T02:24:12;98195.91;;;-1.82
64394;BMP280;50712;49.506;10.400;2023-12-04T02:24:43;98197.03;;;-1.83
64394;BMP280;50712;49.506;10.400;2023-12-04T02:25:13;98197.03;;;-1.83
64394;BMP280;50712;49.506;10.400;2023-12-04T02:25:44;98201.59;;;-1.83
64394;BMP280;50712;49.506;10.400;2023-12-04T02:26:15;98194.38;;;-1.83
64394;BMP280;50712;49.506;10.400;2023-12-04T02:26:52;98197.03;;;-1.83
64394;BMP280;50712;49.506;10.400;2023-12-04T02:27:28;98194.00;;;-1.81
64394;BMP280;50712;49.506;10.400;2023-12-04T02:28:31;98187.16;;;-1.82
64394;BMP280;50712;49.506;10.400;2023-12-04T02:29:05;98182.56;;;-1.82
64394;BMP280;50712;49.506;10.400;2023-12-04T02:29:44;98184.47;;;-1.82
64394;BMP280;50712;49.506;10.400;2023-12-04T02:30:21;98187.16;;;-1.82
64394;BMP280;50712;49.506;10.400;2023-12-04T02:30:53;98187.88;;;-1.82
64394;BMP280;50712;49.506;10.400;2023-12-04T02:31:24;98173.00;;;-1.83
64394;BMP280;50712;49.506;10.400;2023-12-04T02:31:55;98175.31;;;-1.81
64394;BMP280;50712;49.506;10.400;2023-12-04T02:32:28;98180.66;;;-1.81
64394;BMP280;50712;49.506;10.400;2023-12-04T02:33:01;98179.13;;;-1.82
64394;BMP280;50712;49.506;10.400;2023-12-04T02:33:33;98179.88;;;-1.82
64394;BMP280;50712;49.506;10.400;2023-12-04T02:34:05;98182.56;;;-1.82
64394;BMP280;50712;49.506;10.400;2023-12-04T02:34:37;98179.88;;;-1.82
64394;BMP280;50712;49.506;10.400;2023-12-04T02:35:10;98180.66;;;-1.81
64394;BMP280;50712;49.506;10.400;2023-12-04T02:35:41;98183.31;;;-1.81
64394;BMP280;50712;49.506;10.400;2023-12-04T02:36:12;98176.88;;;-1.80
64394;BMP280;50712;49.506;10.400;2023-12-04T02:36:44;98174.97;;;-1.80
64394;BMP280;50712;49.506;10.400;2023-12-04T02:37:16;98183.78;;;-1.79
64394;BMP280;50712;49.506;10.400;2023-12-04T02:37:47;98174.63;;;-1.78
64394;BMP280;50712;49.506;10.400;2023-12-04T02:38:19;98174.63;;;-1.78
64394;BMP280;50712;49.506;10.400;2023-12-04T02:38:51;98175.06;;;-1.76
64394;BMP280;50712;49.506;10.400;2023-12-04T02:39:21;98178.50;;;-1.76
64394;BMP280;50712;49.506;10.400;2023-12-04T02:39:52;98167.81;;;-1.76
64394;BMP280;50712;49.506;10.400;2023-12-04T02:40:25;98169.34;;;-1.75
64394;BMP280;50712;49.506;10.400;2023-12-04T02:40:56;98176.25;;;-1.74
64394;BMP280;50712;49.506;10.400;2023-12-04T02:41:26;98171.69;;;-1.73
64394;BMP280;50712;49.506;10.400;2023-12-04T02:41:57;98174.34;;;-1.73
64394;BMP280;50712;49.506;10.400;2023-12-04T02:42:28;98169.78;;;-1.73
64394;BMP280;50712;49.506;10.400;2023-12-04T02:42:59;98166.34;;;-1.73
64394;BMP280;50712;49.506;10.400;2023-12-04T02:43:29;98161.00;;;-1.73
64394;BMP280;50712;49.506;10.400;2023-12-04T02:43:59;98162.88;;;-1.74
64394;BMP280;50712;49.506;10.400;2023-12-04T02:44:30;98158.31;;;-1.73
64394;BMP280;50712;49.506;10.400;2023-12-04T02:45:00;98154.09;;;-1.74
64394;BMP280;50712;49.506;10.400;2023-12-04T02:45:30;98157.53;;;-1.74
64394;BMP280;50712;49.506;10.400;2023-12-04T02:46:01;98153.31;;;-1.75
64394;BMP280;50712;49.506;10.400;2023-12-04T02:46:31;98154.09;;;-1.74
64394;BMP280;50712;49.506;10.400;2023-12-04T02:47:01;98154.09;;;-1.74
64394;BMP280;50712;49.506;10.400;2023-12-04T02:47:32;98158.66;;;-1.75
64394;BMP280;50712;49.506;10.400;2023-12-04T02:48:02;98158.66;;;-1.75
64394;BMP280;50712;49.506;10.400;2023-12-04T02:48:33;98154.47;;;-1.76
64394;BMP280;50712;49.506;10.400;2023-12-04T02:49:03;98158.25;;;-1.77
64394;BMP280;50712;49.506;10.400;2023-12-04T02:49:33;98159.38;;;-1.78
64394;BMP280;50712;49.506;10.400;2023-12-04T02:50:04;98157.84;;;-1.79
64394;BMP280;50712;49.506;10.400;2023-12-04T02:50:35;98157.06;;;-1.79
64394;BMP280;50712;49.506;10.400;2023-12-04T02:51:05;98154.41;;;-1.79
64394;BMP280;50712;49.506;10.400;2023-12-04T02:51:35;98157.41;;;-1.81
64394;BMP280;50712;49.506;10.400;2023-12-04T02:52:06;98156.63;;;-1.81
64394;BMP280;50712;49.506;10.400;2023-12-04T02:52:36;98160.06;;;-1.81
64394;BMP280;50712;49.506;10.400;2023-12-04T02:53:06;98160.44;;;-1.82
64394;BMP280;50712;49.506;10.400;2023-12-04T02:53:37;98155.84;;;-1.82
64394;BMP280;50712;49.506;10.400;2023-12-04T02:54:07;98153.19;;;-1.82
64394;BMP280;50712;49.506;10.400;2023-12-04T02:54:37;98157.00;;;-1.83
64394;BMP280;50712;49.506;10.400;2023-12-04T02:55:08;98155.09;;;-1.82